Time;durP1;ratioP1;P1;durP2;ratioP2;P2;SDS_P1;SDS_P2;PMS_P1;PMS_P2;Temp;Humidity;BMP_temperature;BMP_pressure;BME280_temperature;BME280_humidity;BME280_pressure;Samples;Min_cycle;Max_cycle;Signal;HPM_P1;HPM_P2
2022/08/20 00:00:55;;;;;;;8.55;8.00;;;;;;;;;;5033005;28;20029;-61
2022/08/20 00:03:38;;;;;;;9.15;8.45;;;;;;;;;;5035011;28;20022;-62
2022/08/20 00:06:06;;;;;;;8.68;8.10;;;;;;;;;;5037940;28;20033;-62
2022/08/20 00:08:32;;;;;;;7.68;7.18;;;;;;;;;;5038063;28;20036;-61
2022/08/20 00:11:01;;;;;;;8.27;7.68;;;;;;;;;;5039177;28;20029;-62
2022/08/20 00:13:34;;;;;;;7.30;6.80;;;;;;;;;;5036671;28;20469;-61
2022/08/20 00:16:01;;;;;;;9.05;8.40;;;;;;;;;;5036806;28;20429;-61
2022/08/20 00:18:26;;;;;;;7.45;6.93;;;;;;;;;;5037327;28;20025;-62
2022/08/20 00:20:53;;;;;;;8.25;7.65;;;;;;;;;;5035256;28;20040;-61
2022/08/20 00:23:19;;;;;;;7.88;7.28;;;;;;;;;;5037664;28;20033;-62
2022/08/20 00:25:45;;;;;;;7.13;6.63;;;;;;;;;;5038545;28;20029;-61
2022/08/20 00:28:11;;;;;;;9.02;8.43;;;;;;;;;;5047603;28;20354;-62
2022/08/20 00:30:40;;;;;;;9.10;8.50;;;;;;;;;;5040338;28;20049;-62
2022/08/20 00:33:10;;;;;;;8.43;7.93;;;;;;;;;;5041371;28;20040;-62
2022/08/20 00:35:40;;;;;;;10.70;10.00;;;;;;;;;;5040980;28;20041;-62
2022/08/20 00:38:05;;;;;;;9.43;8.82;;;;;;;;;;5039354;28;20032;-62
2022/08/20 00:40:36;;;;;;;10.40;9.80;;;;;;;;;;5038704;28;20025;-62
2022/08/20 00:43:03;;;;;;;;;;;;;;;;;;5041413;28;20402;-62
2022/08/20 00:45:31;;;;;;;8.73;8.13;;;;;;;;;;5038927;28;20387;-61
2022/08/20 00:47:57;;;;;;;8.63;8.07;;;;;;;;;;5039826;28;20052;-62
2022/08/20 00:50:32;;;;;;;9.88;9.27;;;;;;;;;;5038688;28;20064;-61
2022/08/20 00:52:58;;;;;;;12.82;12.07;;;;;;;;;;5039553;28;20033;-62
2022/08/20 00:55:25;;;;;;;11.20;10.43;;;;;;;;;;5035763;28;20032;-62
2022/08/20 00:57:53;;;;;;;11.15;10.45;;;;;;;;;;5041189;28;20454;-62
2022/08/20 01:00:27;;;;;;;10.05;9.43;;;;;;;;;;5042012;28;20055;-62
2022/08/20 01:02:54;;;;;;;10.32;9.65;;;;;;;;;;5038106;28;20061;-62
2022/08/20 01:05:22;;;;;;;12.02;11.30;;;;;;;;;;5041448;28;20123;-62
2022/08/20 01:07:49;;;;;;;13.60;12.80;;;;;;;;;;5040556;28;20032;-62
2022/08/20 01:10:18;;;;;;;11.80;11.10;;;;;;;;;;5036936;28;20021;-62
2022/08/20 01:12:46;;;;;;;13.00;12.23;;;;;;;;;;5037383;28;20540;-62
2022/08/20 01:15:16;;;;;;;13.45;12.52;;;;;;;;;;5039241;28;20101;-62
2022/08/20 01:17:56;;;;;;;15.57;14.47;;;;;;;;;;5038759;28;20029;-62
2022/08/20 01:20:32;;;;;;;14.43;13.63;;;;;;;;;;5036182;28;20028;-62
2022/08/20 01:23:26;;;;;;;18.05;17.05;;;;;;;;;;5037772;28;20045;-62
2022/08/20 01:26:12;;;;;;;19.75;18.65;;;;;;;;;;5038988;28;20054;-62
2022/08/20 01:29:00;;;;;;;20.02;18.92;;;;;;;;;;5037402;28;20037;-62
2022/08/20 01:31:30;;;;;;;19.52;18.42;;;;;;;;;;5039866;28;20108;-62
2022/08/20 01:33:58;;;;;;;18.07;17.03;;;;;;;;;;5038375;28;20494;-62
2022/08/20 01:36:44;;;;;;;23.60;22.30;;;;;;;;;;5038556;28;20095;-62
2022/08/20 01:39:13;;;;;;;24.67;23.35;;;;;;;;;;5039552;28;20029;-62
2022/08/20 01:41:50;;;;;;;23.77;22.50;;;;;;;;;;5036270;28;20029;-62
2022/08/20 01:44:16;;;;;;;25.20;23.77;;;;;;;;;;5036891;28;20032;-62
2022/08/20 01:46:44;;;;;;;31.50;29.88;;;;;;;;;;5036585;28;20568;-62
2022/08/20 01:49:20;;;;;;;33.67;31.92;;;;;;;;;;5037143;28;20516;-62
2022/08/20 01:51:46;;;;;;;31.88;30.23;;;;;;;;;;5040498;28;20025;-62
2022/08/20 01:54:12;;;;;;;34.78;32.97;;;;;;;;;;5037610;28;20478;-62
2022/08/20 01:56:50;;;;;;;30.98;29.35;;;;;;;;;;5035487;28;20094;-62
2022/08/20 01:59:15;;;;;;;31.70;30.02;;;;;;;;;;5045695;28;20108;-62
2022/08/20 02:01:40;;;;;;;30.58;28.98;;;;;;;;;;5036821;28;20117;-62
2022/08/20 02:04:09;;;;;;;35.38;33.47;;;;;;;;;;5037074;28;20419;-62
2022/08/20 02:06:42;;;;;;;34.17;32.42;;;;;;;;;;5039262;28;20056;-62
2022/08/20 02:09:09;;;;;;;37.03;35.13;;;;;;;;;;5038734;28;20525;-62
2022/08/20 02:11:36;;;;;;;40.90;38.83;;;;;;;;;;5036597;28;20143;-62
2022/08/20 02:14:05;;;;;;;43.13;40.92;;;;;;;;;;5036695;28;20088;-62
2022/08/20 02:16:35;;;;;;;37.63;35.72;;;;;;;;;;5037761;28;20037;-62
2022/08/20 02:19:08;;;;;;;36.65;34.67;;;;;;;;;;5037756;28;20056;-62
2022/08/20 02:21:36;;;;;;;35.25;33.45;;;;;;;;;;5037970;28;20037;-62
2022/08/20 02:24:03;;;;;;;39.78;37.67;;;;;;;;;;5039513;28;20027;-62
2022/08/20 02:26:29;;;;;;;38.28;36.30;;;;;;;;;;5035524;28;20033;-61
2022/08/20 02:28:54;;;;;;;36.67;34.80;;;;;;;;;;5035930;28;20033;-62
2022/08/20 02:31:21;;;;;;;36.97;35.10;;;;;;;;;;5034596;28;20116;-62
2022/08/20 02:33:48;;;;;;;41.13;38.95;;;;;;;;;;5036016;28;20036;-62
2022/08/20 02:36:16;;;;;;;43.78;41.55;;;;;;;;;;5035859;28;20036;-61
2022/08/20 02:38:42;;;;;;;38.38;36.38;;;;;;;;;;5038192;28;20667;-62
2022/08/20 02:41:09;;;;;;;38.20;36.25;;;;;;;;;;5037633;28;20624;-62
2022/08/20 02:43:35;;;;;;;40.40;38.33;;;;;;;;;;5036044;28;20057;-62
2022/08/20 02:46:01;;;;;;;44.65;42.38;;;;;;;;;;5037943;28;20071;-62
2022/08/20 02:48:28;;;;;;;41.40;39.30;;;;;;;;;;5034995;28;20099;-62
2022/08/20 02:50:57;;;;;;;38.40;36.35;;;;;;;;;;5037961;28;20040;-62
2022/08/20 02:53:24;;;;;;;42.65;40.47;;;;;;;;;;5037676;28;20047;-62
2022/08/20 02:55:50;;;;;;;35.10;33.30;;;;;;;;;;5036516;28;20059;-62
2022/08/20 02:58:16;;;;;;;29.75;28.23;;;;;;;;;;5037179;28;20029;-62
2022/08/20 03:00:41;;;;;;;35.55;33.67;;;;;;;;;;5039103;28;20041;-62
2022/08/20 03:03:09;;;;;;;34.90;33.10;;;;;;;;;;5035985;28;20029;-62
2022/08/20 03:05:35;;;;;;;34.28;32.47;;;;;;;;;;5036008;28;20087;-62
2022/08/20 03:08:01;;;;;;;31.65;30.00;;;;;;;;;;5035686;28;20063;-62
2022/08/20 03:10:33;;;;;;;35.35;33.53;;;;;;;;;;5037779;28;20060;-62
2022/08/20 03:13:01;;;;;;;30.75;29.13;;;;;;;;;;5035947;28;20033;-62
2022/08/20 03:15:27;;;;;;;27.90;26.42;;;;;;;;;;5036822;28;20163;-62
2022/08/20 03:17:52;;;;;;;29.85;28.27;;;;;;;;;;5035125;28;20052;-62
2022/08/20 03:20:18;;;;;;;30.40;28.80;;;;;;;;;;5036668;28;20417;-62
2022/08/20 03:22:43;;;;;;;25.00;23.60;;;;;;;;;;5036137;28;20039;-62
2022/08/20 03:25:10;;;;;;;26.38;24.98;;;;;;;;;;5035015;28;20025;-62
2022/08/20 03:27:35;;;;;;;20.58;19.48;;;;;;;;;;5037421;28;20071;-63
2022/08/20 03:30:01;;;;;;;24.05;22.70;;;;;;;;;;5035661;28;20451;-62
2022/08/20 03:32:26;;;;;;;20.33;19.23;;;;;;;;;;5036723;28;20056;-62
2022/08/20 03:34:51;;;;;;;21.70;20.50;;;;;;;;;;5035629;28;20029;-62
2022/08/20 03:37:17;;;;;;;22.55;21.35;;;;;;;;;;5036972;28;20447;-62
2022/08/20 03:39:42;;;;;;;16.83;15.88;;;;;;;;;;5034077;28;20044;-62
2022/08/20 03:42:07;;;;;;;18.50;17.50;;;;;;;;;;5035578;28;20026;-62
2022/08/20 03:44:33;;;;;;;21.88;20.67;;;;;;;;;;5034665;28;20451;-62
2022/08/20 03:46:58;;;;;;;19.50;18.40;;;;;;;;;;5033030;28;20084;-63
2022/08/20 03:49:24;;;;;;;17.23;16.27;;;;;;;;;;5035305;28;20037;-62
2022/08/20 03:51:50;;;;;;;17.75;16.75;;;;;;;;;;5041281;28;20646;-62
2022/08/20 03:54:15;;;;;;;16.40;15.50;;;;;;;;;;5036295;28;20035;-62
2022/08/20 03:56:41;;;;;;;14.25;13.45;;;;;;;;;;5039770;28;20028;-62
2022/08/20 03:59:07;;;;;;;17.45;16.45;;;;;;;;;;5040674;28;20064;-62
2022/08/20 04:01:32;;;;;;;17.33;16.33;;;;;;;;;;5035572;28;20037;-62
2022/08/20 04:03:58;;;;;;;13.55;12.77;;;;;;;;;;5043232;28;20164;-61
2022/08/20 04:06:24;;;;;;;15.27;14.38;;;;;;;;;;5041300;28;20060;-62
2022/08/20 04:08:50;;;;;;;20.05;18.95;;;;;;;;;;5042808;28;20104;-62
2022/08/20 04:11:15;;;;;;;16.67;15.77;;;;;;;;;;5044915;28;20033;-62
2022/08/20 04:13:41;;;;;;;18.10;17.10;;;;;;;;;;5040459;28;20056;-62
2022/08/20 04:16:07;;;;;;;12.73;12.02;;;;;;;;;;5039756;28;20021;-62
2022/08/20 04:18:35;;;;;;;18.25;17.25;;;;;;;;;;5039752;28;20456;-62
2022/08/20 04:21:02;;;;;;;16.13;15.23;;;;;;;;;;5039673;28;20397;-62
2022/08/20 04:23:29;;;;;;;16.15;15.05;;;;;;;;;;5040924;28;20495;-62
2022/08/20 04:25:56;;;;;;;14.88;14.02;;;;;;;;;;5039749;28;20033;-62
2022/08/20 04:28:28;;;;;;;19.92;18.73;;;;;;;;;;5038292;28;20033;-62
2022/08/20 04:30:57;;;;;;;20.75;19.65;;;;;;;;;;5041334;28;20039;-62
2022/08/20 04:33:24;;;;;;;19.25;18.20;;;;;;;;;;5038279;28;20026;-62
2022/08/20 04:35:50;;;;;;;23.75;22.48;;;;;;;;;;5040110;28;20044;-62
2022/08/20 04:38:17;;;;;;;21.52;20.25;;;;;;;;;;5040426;28;20032;-62
2022/08/20 04:40:53;;;;;;;23.23;21.98;;;;;;;;;;5037671;28;20136;-62
2022/08/20 04:43:32;;;;;;;22.73;21.45;;;;;;;;;;5041415;28;20056;-62
2022/08/20 04:46:00;;;;;;;23.75;22.48;;;;;;;;;;5041029;28;20041;-62
2022/08/20 04:48:27;;;;;;;28.55;27.05;;;;;;;;;;5040336;28;20049;-63
2022/08/20 04:50:55;;;;;;;26.10;24.70;;;;;;;;;;5041385;28;20053;-63
2022/08/20 04:53:23;;;;;;;29.88;28.27;;;;;;;;;;5039634;28;20514;-62
2022/08/20 04:55:50;;;;;;;27.15;25.73;;;;;;;;;;5040556;28;20476;-63
2022/08/20 04:58:22;;;;;;;25.23;23.88;;;;;;;;;;5039837;28;20026;-63
2022/08/20 05:00:50;;;;;;;29.00;27.48;;;;;;;;;;5042144;28;20036;-62
2022/08/20 05:03:17;;;;;;;24.90;23.58;;;;;;;;;;5038705;28;20359;-63
2022/08/20 05:05:44;;;;;;;28.60;27.05;;;;;;;;;;5038156;28;20041;-62
2022/08/20 05:08:11;;;;;;;27.98;26.52;;;;;;;;;;5035953;28;20029;-63
2022/08/20 05:10:38;;;;;;;30.77;29.20;;;;;;;;;;5041065;28;20032;-62
2022/08/20 05:13:04;;;;;;;29.58;28.00;;;;;;;;;;5038312;28;20033;-62
2022/08/20 05:15:30;;;;;;;29.27;27.73;;;;;;;;;;5017115;28;20391;-63
2022/08/20 05:18:02;;;;;;;29.67;28.10;;;;;;;;;;5038797;28;20083;-62
2022/08/20 05:20:30;;;;;;;29.38;27.85;;;;;;;;;;5040244;28;20033;-63
2022/08/20 05:22:59;;;;;;;31.75;30.10;;;;;;;;;;5037273;28;20040;-63
2022/08/20 05:25:28;;;;;;;30.35;28.75;;;;;;;;;;5035876;28;20443;-63
2022/08/20 05:28:02;;;;;;;29.77;28.23;;;;;;;;;;5038007;28;20461;-62
2022/08/20 05:30:32;;;;;;;33.78;32.03;;;;;;;;;;5039876;28;20051;-62
2022/08/20 05:33:02;;;;;;;28.95;27.45;;;;;;;;;;5035995;28;20029;-62
2022/08/20 05:35:29;;;;;;;32.47;30.77;;;;;;;;;;5040795;28;20029;-62
2022/08/20 05:37:56;;;;;;;33.60;31.85;;;;;;;;;;5038025;28;20047;-62
2022/08/20 05:40:23;;;;;;;40.25;38.20;;;;;;;;;;5035589;28;20037;-62
2022/08/20 05:42:48;;;;;;;35.00;33.15;;;;;;;;;;5038304;28;20033;-62
2022/08/20 05:45:16;;;;;;;30.27;28.70;;;;;;;;;;5039101;28;20029;-62
2022/08/20 05:47:43;;;;;;;33.03;31.33;;;;;;;;;;5035709;28;20060;-63
2022/08/20 05:50:10;;;;;;;36.58;34.67;;;;;;;;;;5038355;28;20029;-62
2022/08/20 05:52:36;;;;;;;24.67;23.35;;;;;;;;;;5036588;28;20352;-61
2022/08/20 05:55:04;;;;;;;28.88;27.35;;;;;;;;;;5038972;28;20170;-61
2022/08/20 05:57:30;;;;;;;34.58;32.80;;;;;;;;;;5039699;28;20108;-61
2022/08/20 05:59:55;;;;;;;35.22;33.40;;;;;;;;;;5038848;28;20578;-61
2022/08/20 06:05:04;;;;;;;30.90;29.25;;;;;;;;;;5038468;28;20059;-60
2022/08/20 06:07:30;;;;;;;35.17;33.35;;;;;;;;;;5038701;28;20040;-60
2022/08/20 06:09:55;;;;;;;37.90;35.92;;;;;;;;;;5037160;28;20045;-60
2022/08/20 06:12:20;;;;;;;34.28;32.47;;;;;;;;;;5035438;28;20040;-60
2022/08/20 06:14:46;;;;;;;32.47;30.77;;;;;;;;;;5038249;28;20029;-59
2022/08/20 06:17:17;;;;;;;35.47;33.58;;;;;;;;;;5035366;28;20033;-60
2022/08/20 06:19:44;;;;;;;34.60;32.80;;;;;;;;;;5035734;28;20462;-60
2022/08/20 06:22:10;;;;;;;33.20;31.38;;;;;;;;;;5035160;28;20482;-60
2022/08/20 06:24:36;;;;;;;36.90;34.97;;;;;;;;;;5037438;28;20028;-60
2022/08/20 06:27:03;;;;;;;33.90;32.15;;;;;;;;;;5039043;28;20059;-59
2022/08/20 06:29:32;;;;;;;37.38;35.45;;;;;;;;;;5035175;28;20032;-60
2022/08/20 06:31:58;;;;;;;36.50;34.63;;;;;;;;;;5039012;28;20041;-59
2022/08/20 06:34:27;;;;;;;35.67;33.78;;;;;;;;;;5038362;28;20048;-60
2022/08/20 06:36:53;;;;;;;35.65;33.78;;;;;;;;;;5038615;28;20442;-60
2022/08/20 06:39:18;;;;;;;39.85;37.80;;;;;;;;;;5039820;28;20040;-60
2022/08/20 06:41:43;;;;;;;42.50;39.85;;;;;;;;;;5040801;28;20371;-60
2022/08/20 06:44:09;;;;;;;50.85;48.28;;;;;;;;;;5038220;28;20280;-60
2022/08/20 06:46:35;;;;;;;55.78;52.95;;;;;;;;;;5036864;28;20061;-61
2022/08/20 06:49:02;;;;;;;64.95;61.70;;;;;;;;;;5039652;28;20469;-67
2022/08/20 06:51:28;;;;;;;81.45;77.35;;;;;;;;;;5037011;28;20457;-70
2022/08/20 06:53:54;;;;;;;81.68;77.60;;;;;;;;;;5037090;28;20025;-71
2022/08/20 06:56:20;;;;;;;86.00;81.75;;;;;;;;;;5037305;28;20516;-69
2022/08/20 06:58:45;;;;;;;101.30;96.28;;;;;;;;;;5033549;28;20033;-69
2022/08/20 07:01:12;;;;;;;103.40;98.28;;;;;;;;;;5037044;28;20036;-70
2022/08/20 07:03:39;;;;;;;104.88;99.70;;;;;;;;;;5037904;28;20036;-70
2022/08/20 07:06:05;;;;;;;106.22;100.97;;;;;;;;;;5036257;28;20055;-71
2022/08/20 07:08:32;;;;;;;111.70;106.20;;;;;;;;;;5036147;28;20485;-68
2022/08/20 07:10:58;;;;;;;105.78;100.55;;;;;;;;;;5035498;28;20037;-67
2022/08/20 07:13:24;;;;;;;120.25;114.38;;;;;;;;;;5035475;28;20025;-69
2022/08/20 07:15:49;;;;;;;107.30;102.03;;;;;;;;;;5035786;28;20079;-68
2022/08/20 07:18:15;;;;;;;92.22;87.68;;;;;;;;;;5040272;28;20455;-67
2022/08/20 07:20:41;;;;;;;93.97;89.28;;;;;;;;;;5032643;28;20055;-67
2022/08/20 07:23:07;;;;;;;85.93;81.60;;;;;;;;;;5043506;28;20024;-67
2022/08/20 07:25:32;;;;;;;82.45;78.38;;;;;;;;;;5036491;28;20036;-67
2022/08/20 07:28:00;;;;;;;95.20;90.47;;;;;;;;;;5036023;28;20039;-68
2022/08/20 07:33:13;;;;;;;81.05;77.03;;;;;;;;;;5037025;28;20084;-67
2022/08/20 07:35:39;;;;;;;83.00;78.88;;;;;;;;;;5037506;28;20052;-67
2022/08/20 07:38:06;;;;;;;66.70;63.38;;;;;;;;;;5032076;28;20130;-67
2022/08/20 07:40:33;;;;;;;46.80;44.40;;;;;;;;;;5033149;28;20033;-67
2022/08/20 07:43:01;;;;;;;35.88;34.05;;;;;;;;;;5035466;28;20040;-67
2022/08/20 07:45:28;;;;;;;60.47;57.42;;;;;;;;;;5034403;28;20053;-67
2022/08/20 07:47:54;;;;;;;55.75;52.95;;;;;;;;;;5034658;28;20056;-67
2022/08/20 07:50:24;;;;;;;58.75;55.83;;;;;;;;;;5033079;28;20491;-68
2022/08/20 07:52:52;;;;;;;56.38;53.47;;;;;;;;;;5037138;28;20124;-68
2022/08/20 07:55:19;;;;;;;86.47;82.22;;;;;;;;;;5035775;28;20029;-68
2022/08/20 07:57:48;;;;;;;81.00;76.90;;;;;;;;;;5036151;28;20477;-67
2022/08/20 08:00:16;;;;;;;68.85;65.40;;;;;;;;;;5031535;28;20084;-68
2022/08/20 08:02:41;;;;;;;75.95;72.20;;;;;;;;;;5034223;28;20660;-68
2022/08/20 08:05:08;;;;;;;112.22;106.75;;;;;;;;;;5036067;28;20156;-68
2022/08/20 08:07:34;;;;;;;130.23;123.93;;;;;;;;;;5033571;28;20471;-68
2022/08/20 08:10:01;;;;;;;148.43;141.20;;;;;;;;;;5033987;28;20052;-68
2022/08/20 08:12:33;;;;;;;138.45;131.65;;;;;;;;;;5036458;28;20029;-68
2022/08/20 08:14:59;;;;;;;123.57;117.60;;;;;;;;;;5033148;28;20111;-68
2022/08/20 08:17:24;;;;;;;142.55;135.68;;;;;;;;;;5032999;28;20037;-68
2022/08/20 08:19:50;;;;;;;153.80;146.35;;;;;;;;;;5035685;28;20072;-68
2022/08/20 08:22:18;;;;;;;159.50;151.82;;;;;;;;;;5036535;28;20028;-68
2022/08/20 08:24:46;;;;;;;156.18;148.57;;;;;;;;;;5035378;28;20025;-68
2022/08/20 08:27:12;;;;;;;147.98;140.65;;;;;;;;;;5037801;28;20079;-67
2022/08/20 08:29:38;;;;;;;136.98;130.32;;;;;;;;;;5038992;28;20289;-68
2022/08/20 08:32:05;;;;;;;152.60;145.18;;;;;;;;;;5039644;28;20037;-68
2022/08/20 08:34:33;;;;;;;149.50;142.20;;;;;;;;;;5037132;28;20041;-67
2022/08/20 08:37:01;;;;;;;159.20;151.50;;;;;;;;;;5035820;28;20029;-66
2022/08/20 08:39:27;;;;;;;146.05;138.93;;;;;;;;;;5034910;28;20025;-67
2022/08/20 08:41:53;;;;;;;163.60;155.68;;;;;;;;;;5036613;28;20029;-67
2022/08/20 08:44:26;;;;;;;143.45;136.45;;;;;;;;;;5036082;28;20052;-67
2022/08/20 08:46:57;;;;;;;157.95;150.32;;;;;;;;;;5039293;28;20113;-67
2022/08/20 08:49:26;;;;;;;47.13;44.72;;;;;;;;;;5038792;28;20033;-67
2022/08/20 08:52:10;;;;;;;85.22;81.03;;;;;;;;;;5041056;28;20048;-66
2022/08/20 08:54:41;;;;;;;88.60;84.20;;;;;;;;;;5036632;28;20455;-65
2022/08/20 08:57:08;;;;;;;22.65;21.42;;;;;;;;;;5041191;28;20033;-65
2022/08/20 08:59:34;;;;;;;37.33;35.38;;;;;;;;;;5038652;28;20417;-66
2022/08/20 09:02:01;;;;;;;35.58;33.78;;;;;;;;;;5040826;28;20033;-66
2022/08/20 09:04:34;;;;;;;45.20;42.85;;;;;;;;;;5039253;28;20061;-66
2022/08/20 09:07:03;;;;;;;70.95;67.43;;;;;;;;;;5040734;28;20068;-66
2022/08/20 09:09:32;;;;;;;110.18;104.80;;;;;;;;;;5038477;28;20396;-66
2022/08/20 09:12:04;;;;;;;41.45;39.33;;;;;;;;;;5044911;28;20414;-65
2022/08/20 09:14:30;;;;;;;54.03;51.33;;;;;;;;;;5038983;28;20052;-64
2022/08/20 09:16:55;;;;;;;21.30;20.15;;;;;;;;;;5039405;28;20043;-64
2022/08/20 09:19:21;;;;;;;42.20;40.05;;;;;;;;;;5040102;28;20071;-63
2022/08/20 09:21:46;;;;;;;27.90;26.40;;;;;;;;;;5042216;28;20447;-65
2022/08/20 09:24:12;;;;;;;27.40;25.95;;;;;;;;;;5035511;28;20026;-65
2022/08/20 09:26:37;;;;;;;26.35;24.95;;;;;;;;;;5038786;28;20091;-63
2022/08/20 09:29:02;;;;;;;18.35;17.35;;;;;;;;;;5039253;28;20121;-65
2022/08/20 09:31:28;;;;;;;23.15;21.90;;;;;;;;;;5039206;28;20115;-65
2022/08/20 09:33:53;;;;;;;29.23;27.70;;;;;;;;;;5042212;28;20367;-63
2022/08/20 09:36:18;;;;;;;26.63;25.23;;;;;;;;;;5037448;28;20431;-65
2022/08/20 09:38:44;;;;;;;25.17;23.83;;;;;;;;;;5039383;28;20818;-64
2022/08/20 09:41:09;;;;;;;22.40;21.20;;;;;;;;;;5040642;28;20032;-64
2022/08/20 09:43:35;;;;;;;24.73;23.25;;;;;;;;;;5036941;28;20049;-64
2022/08/20 09:46:00;;;;;;;30.67;29.08;;;;;;;;;;5042353;28;20037;-64
2022/08/20 09:48:25;;;;;;;35.13;33.33;;;;;;;;;;5036600;28;20037;-62
2022/08/20 09:50:51;;;;;;;35.00;33.20;;;;;;;;;;5036430;28;20386;-63
2022/08/20 09:53:18;;;;;;;34.72;32.92;;;;;;;;;;5039668;28;20510;-63
2022/08/20 09:55:47;;;;;;;32.42;30.70;;;;;;;;;;5039921;28;20087;-63
2022/08/20 09:58:31;;;;;;;38.65;36.67;;;;;;;;;;5038973;28;20040;-63
2022/08/20 10:00:57;;;;;;;51.08;48.50;;;;;;;;;;5039647;28;20038;-62
2022/08/20 10:03:22;;;;;;;41.92;39.78;;;;;;;;;;5038087;28;20033;-62
2022/08/20 10:05:48;;;;;;;37.63;35.72;;;;;;;;;;5038643;28;20033;-63
2022/08/20 10:08:13;;;;;;;44.30;42.05;;;;;;;;;;5039135;28;20025;-63
2022/08/20 10:10:39;;;;;;;62.35;59.25;;;;;;;;;;5040924;28;20036;-63
2022/08/20 10:13:04;;;;;;;74.35;70.65;;;;;;;;;;5040582;28;20637;-63
2022/08/20 10:15:30;;;;;;;78.22;74.38;;;;;;;;;;5039398;28;20110;-63
2022/08/20 10:17:58;;;;;;;67.25;63.95;;;;;;;;;;5038005;28;20410;-62
2022/08/20 10:20:24;;;;;;;63.60;60.38;;;;;;;;;;5037668;28;20510;-63
2022/08/20 10:22:50;;;;;;;62.10;59.00;;;;;;;;;;5038956;28;20029;-62
2022/08/20 10:25:16;;;;;;;40.88;38.78;;;;;;;;;;5037573;28;20497;-62
2022/08/20 10:27:43;;;;;;;68.68;65.28;;;;;;;;;;5036823;28;20064;-63
2022/08/20 10:30:09;;;;;;;62.10;59.00;;;;;;;;;;5036594;28;20041;-61
2022/08/20 10:32:34;;;;;;;83.15;79.03;;;;;;;;;;5036570;28;20025;-62
2022/08/20 10:35:00;;;;;;;96.22;91.50;;;;;;;;;;5035967;28;20052;-61
2022/08/20 10:37:25;;;;;;;79.80;75.85;;;;;;;;;;5037762;28;20378;-62
2022/08/20 10:39:52;;;;;;;84.88;80.72;;;;;;;;;;5036505;28;20451;-61
2022/08/20 10:42:17;;;;;;;98.15;93.32;;;;;;;;;;5037451;28;20124;-61
2022/08/20 10:44:43;;;;;;;88.88;84.45;;;;;;;;;;5038309;28;20179;-62
2022/08/20 10:47:21;;;;;;;78.90;75.03;;;;;;;;;;5036245;28;20099;-61
2022/08/20 10:49:52;;;;;;;57.83;54.95;;;;;;;;;;5036840;28;20063;-61
2022/08/20 10:52:19;;;;;;;59.30;56.35;;;;;;;;;;5038347;28;20037;-60
2022/08/20 10:54:46;;;;;;;88.57;84.22;;;;;;;;;;5037206;28;20073;-61
2022/08/20 10:57:22;;;;;;;73.53;69.88;;;;;;;;;;5036125;28;20059;-60
2022/08/20 10:59:49;;;;;;;60.70;57.70;;;;;;;;;;5037674;28;20040;-61
2022/08/20 11:02:15;;;;;;;157.75;149.95;;;;;;;;;;5038735;28;20055;-60
2022/08/20 11:04:41;;;;;;;165.65;157.52;;;;;;;;;;5036268;28;20033;-60
2022/08/20 11:07:19;;;;;;;153.60;146.02;;;;;;;;;;5039099;28;20107;-60
2022/08/20 11:09:47;;;;;;;175.00;166.40;;;;;;;;;;5038223;28;20052;-60
2022/08/20 11:12:13;;;;;;;117.03;111.30;;;;;;;;;;5033585;28;20599;-62
2022/08/20 11:14:39;;;;;;;259.60;246.93;;;;;;;;;;5035813;28;20056;-61
2022/08/20 11:17:06;;;;;;;169.80;161.45;;;;;;;;;;5035472;28;20048;-61
2022/08/20 11:19:32;;;;;;;263.65;250.73;;;;;;;;;;5039037;28;20116;-61
2022/08/20 11:21:57;;;;;;;271.73;258.40;;;;;;;;;;5036108;28;20721;-61
2022/08/20 11:24:22;;;;;;;266.35;253.30;;;;;;;;;;5037929;28;20036;-61
2022/08/20 11:26:49;;;;;;;262.90;250.02;;;;;;;;;;5036121;28;20453;-62
2022/08/20 11:29:16;;;;;;;255.60;243.13;;;;;;;;;;5036330;28;20043;-61
2022/08/20 11:31:41;;;;;;;274.88;261.48;;;;;;;;;;5036500;28;20030;-61
2022/08/20 11:34:06;;;;;;;239.70;228.07;;;;;;;;;;5034007;28;20039;-61
2022/08/20 11:36:32;;;;;;;260.05;247.35;;;;;;;;;;5035864;28;20045;-60
2022/08/20 11:38:57;;;;;;;280.38;266.70;;;;;;;;;;5038471;28;20064;-60
2022/08/20 11:41:23;;;;;;;241.52;229.75;;;;;;;;;;5036566;28;20029;-61
2022/08/20 11:43:48;;;;;;;275.98;262.50;;;;;;;;;;5036319;28;20068;-60
2022/08/20 11:46:13;;;;;;;220.80;210.02;;;;;;;;;;5036988;28;20040;-60
2022/08/20 11:48:39;;;;;;;218.77;208.07;;;;;;;;;;5031899;28;20040;-60
2022/08/20 11:51:04;;;;;;;197.07;187.43;;;;;;;;;;5035608;28;20128;-60
2022/08/20 11:53:30;;;;;;;199.77;190.02;;;;;;;;;;5038800;28;20120;-60
2022/08/20 11:55:56;;;;;;;192.55;183.15;;;;;;;;;;5036744;28;20430;-61
2022/08/20 11:58:21;;;;;;;218.68;208.05;;;;;;;;;;5036757;28;20042;-60
2022/08/20 12:00:46;;;;;;;203.52;193.57;;;;;;;;;;5035869;28;20053;-59
2022/08/20 12:03:12;;;;;;;216.32;205.80;;;;;;;;;;5035164;28;20040;-59
2022/08/20 12:05:39;;;;;;;202.25;192.40;;;;;;;;;;5036449;28;20600;-60
2022/08/20 12:08:05;;;;;;;198.13;188.50;;;;;;;;;;5035114;28;20098;-60
2022/08/20 12:10:31;;;;;;;175.30;166.73;;;;;;;;;;5032845;28;20029;-61
2022/08/20 12:12:56;;;;;;;190.32;181.05;;;;;;;;;;5031125;28;20037;-61
2022/08/20 12:15:22;;;;;;;194.20;184.70;;;;;;;;;;5035043;28;20032;-61
2022/08/20 12:17:47;;;;;;;185.25;176.18;;;;;;;;;;5036641;28;20589;-60
2022/08/20 12:20:14;;;;;;;203.68;193.75;;;;;;;;;;5034221;28;20068;-61
2022/08/20 12:22:40;;;;;;;218.95;208.25;;;;;;;;;;5036651;28;20099;-60
2022/08/20 12:25:07;;;;;;;233.23;221.88;;;;;;;;;;5041464;28;20021;-61
2022/08/20 12:27:34;;;;;;;217.77;207.13;;;;;;;;;;5040630;28;20378;-61
2022/08/20 12:30:02;;;;;;;241.25;229.45;;;;;;;;;;5039823;28;20024;-62
2022/08/20 12:32:29;;;;;;;235.82;224.38;;;;;;;;;;5037773;28;20032;-62
2022/08/20 12:34:55;;;;;;;249.23;237.10;;;;;;;;;;5036684;28;20095;-62
2022/08/20 12:37:24;;;;;;;242.93;231.13;;;;;;;;;;5038051;28;20037;-62
2022/08/20 12:39:54;;;;;;;245.93;233.88;;;;;;;;;;5040988;28;20116;-62
2022/08/20 12:42:20;;;;;;;252.18;239.88;;;;;;;;;;5039110;28;20029;-62
2022/08/20 12:44:45;;;;;;;242.52;230.70;;;;;;;;;;5036455;28;20452;-61
2022/08/20 12:47:23;;;;;;;215.30;204.73;;;;;;;;;;5037707;28;20041;-61
2022/08/20 12:49:55;;;;;;;218.32;207.65;;;;;;;;;;5041084;28;20120;-62
2022/08/20 12:52:22;;;;;;;239.32;227.65;;;;;;;;;;5039135;28;20029;-62
2022/08/20 12:54:48;;;;;;;250.98;238.70;;;;;;;;;;5040733;28;20036;-62
2022/08/20 12:57:21;;;;;;;269.15;256.02;;;;;;;;;;5038197;28;20040;-62
2022/08/20 12:59:46;;;;;;;242.80;230.93;;;;;;;;;;5037384;28;20037;-62
2022/08/20 13:02:12;;;;;;;257.08;244.55;;;;;;;;;;5038837;28;20606;-59
2022/08/20 13:04:37;;;;;;;256.02;243.57;;;;;;;;;;5039713;28;20442;-59
2022/08/20 13:07:03;;;;;;;250.05;237.88;;;;;;;;;;5041687;28;20077;-59
2022/08/20 13:09:29;;;;;;;255.45;242.95;;;;;;;;;;5037175;28;20120;-59
2022/08/20 13:11:54;;;;;;;264.73;251.82;;;;;;;;;;5040291;28;20036;-59
2022/08/20 13:14:19;;;;;;;243.18;231.25;;;;;;;;;;5039389;28;20469;-59
2022/08/20 13:16:45;;;;;;;253.60;241.27;;;;;;;;;;5039700;28;20665;-59
2022/08/20 13:19:10;;;;;;;271.73;258.38;;;;;;;;;;5041899;28;20124;-58
2022/08/20 13:21:35;;;;;;;233.23;221.82;;;;;;;;;;5038733;28;20029;-58
2022/08/20 13:24:01;;;;;;;206.35;196.23;;;;;;;;;;5039088;28;20475;-59
2022/08/20 13:26:26;;;;;;;243.15;231.30;;;;;;;;;;5037413;28;20060;-58
2022/08/20 13:28:52;;;;;;;232.90;221.50;;;;;;;;;;5039543;28;20040;-58
2022/08/20 13:31:18;;;;;;;213.07;202.63;;;;;;;;;;5038872;28;20040;-58
2022/08/20 13:33:43;;;;;;;197.18;187.50;;;;;;;;;;5038667;28;20457;-59
2022/08/20 13:36:08;;;;;;;206.43;196.30;;;;;;;;;;5039909;28;20175;-58
2022/08/20 13:38:34;;;;;;;183.52;174.50;;;;;;;;;;5039499;28;20052;-59
2022/08/20 13:40:59;;;;;;;192.93;183.43;;;;;;;;;;5038935;28;20244;-58
2022/08/20 13:43:24;;;;;;;192.85;183.35;;;;;;;;;;5039553;28;20168;-59
2022/08/20 13:45:50;;;;;;;222.52;211.68;;;;;;;;;;5036885;28;20120;-58
2022/08/20 13:48:15;;;;;;;155.50;147.77;;;;;;;;;;5038719;28;20036;-58
2022/08/20 13:50:42;;;;;;;191.32;181.93;;;;;;;;;;5040787;28;20391;-58
2022/08/20 13:53:07;;;;;;;102.70;97.60;;;;;;;;;;5038160;28;20083;-58
2022/08/20 13:55:33;;;;;;;151.88;144.43;;;;;;;;;;5041525;28;20482;-58
2022/08/20 13:58:03;;;;;;;105.80;100.55;;;;;;;;;;5032631;28;20516;-58
2022/08/20 14:00:31;;;;;;;127.32;121.00;;;;;;;;;;5041301;28;20421;-58
2022/08/20 14:02:56;;;;;;;105.25;100.03;;;;;;;;;;5035206;28;20037;-58
2022/08/20 14:05:22;;;;;;;74.47;70.78;;;;;;;;;;5037378;28;20036;-58
2022/08/20 14:07:49;;;;;;;73.18;69.53;;;;;;;;;;5036633;28;20038;-58
2022/08/20 14:10:23;;;;;;;89.50;85.10;;;;;;;;;;5038374;28;20030;-59
2022/08/20 14:12:49;;;;;;;75.47;71.72;;;;;;;;;;5037848;28;20063;-58
2022/08/20 14:15:15;;;;;;;90.25;85.80;;;;;;;;;;5036926;28;20688;-58
2022/08/20 14:17:48;;;;;;;79.97;75.95;;;;;;;;;;5038197;28;20073;-58